Aviation Digital Data Service (ADDS)

Output produced by METARs form (1033 UTC 17 June 2019)
found at http://www.aviationweather.gov/metar/data/
 
Forecast for: VLVT (VIENTIANE/WATTAY, LA)
Text: TAF VLVT 170500Z 1706/1806 22004KT 8000 SCT016 BKN040 BKN083
Forecast period: 0600 UTC 17 June 2019 to 0600 UTC 18 June 2019
Forecast type: FROM: standard forecast or significant change
Winds: from the SW (220 degrees) at 5 MPH (4 knots; 2.1 m/s)
Visibility: 5 miles (8 km)
Ceiling: 4000 feet AGL
Clouds: scattered clouds at 1600 feet AGL
broken clouds at 4000 feet AGL
broken clouds at 8300 feet AGL
Weather: no significant weather forecast for this period
Text: TEMPO 17 012/1714 27006KT 4000 -RA SCT020 BKN040 BKN080
Forecast period: 1700 UTC 17 June 2019 to 0600 UTC 18 June 2019
Forecast type: TEMPORARY: The following changes expected for less than half the time period
Winds: from the W (270 degrees) at 7 MPH (6 knots; 3.1 m/s)
Visibility: 1.07 miles (1.72 km)
Ceiling: 4000 feet AGL
Clouds: scattered clouds at 2000 feet AGL
broken clouds at 4000 feet AGL
broken clouds at 8000 feet AGL
Weather: -RA  (light rain)